createdAt,value
2018-02-17T00:00:33.327Z,-0.80
2018-02-17T00:03:01.807Z,-0.60
2018-02-17T00:05:30.259Z,-0.70
2018-02-17T00:07:57.997Z,-0.70
2018-02-17T00:10:25.679Z,-0.80
2018-02-17T00:12:53.403Z,-0.80
2018-02-17T00:15:21.086Z,-0.80
2018-02-17T00:17:48.803Z,-0.60
2018-02-17T00:20:17.234Z,-1.00
2018-02-17T00:22:49.908Z,-1.00
2018-02-17T00:25:17.591Z,-1.10
2018-02-17T00:27:45.374Z,-1.10
2018-02-17T00:30:13.832Z,-1.10
2018-02-17T00:32:41.551Z,-1.10
2018-02-17T00:35:09.221Z,-1.00
2018-02-17T00:37:36.990Z,-0.90
2018-02-17T00:40:04.671Z,-0.90
2018-02-17T00:42:32.383Z,-1.00
2018-02-17T00:45:00.113Z,-1.10
2018-02-17T00:47:27.814Z,-1.00
2018-02-17T00:49:55.531Z,-0.90
2018-02-17T00:52:23.237Z,-1.00
2018-02-17T00:54:50.910Z,-1.00
2018-02-17T00:57:18.666Z,-1.10
2018-02-17T00:59:46.360Z,-1.00
2018-02-17T01:02:14.063Z,-0.90
2018-02-17T01:04:42.500Z,-0.80
2018-02-17T01:07:10.213Z,-0.80
2018-02-17T01:09:37.922Z,-0.90
2018-02-17T01:12:05.655Z,-0.80
2018-02-17T01:14:33.407Z,-0.90
2018-02-17T01:17:01.081Z,-1.10
2018-02-17T01:19:28.791Z,-1.00
2018-02-17T01:21:56.530Z,-1.00
2018-02-17T01:24:24.270Z,-1.00
2018-02-17T01:26:51.948Z,-1.10
2018-02-17T01:29:19.662Z,-1.20
2018-02-17T01:31:48.110Z,-1.00
2018-02-17T01:34:15.836Z,-1.00
2018-02-17T01:36:43.498Z,-1.00
2018-02-17T01:39:11.219Z,-0.90
2018-02-17T01:41:39.659Z,-1.10
2018-02-17T01:44:07.410Z,-1.10
2018-02-17T01:46:35.087Z,-1.10
2018-02-17T01:49:02.802Z,-1.00
2018-02-17T01:51:30.475Z,-1.10
2018-02-17T01:53:58.247Z,-1.10
2018-02-17T01:56:25.918Z,-1.10
2018-02-17T01:58:53.676Z,-0.80
2018-02-17T02:01:21.412Z,-0.90
2018-02-17T02:03:49.131Z,-1.00
2018-02-17T02:06:16.802Z,-1.00
2018-02-17T02:08:45.281Z,-0.70
2018-02-17T02:11:13.728Z,-0.80
2018-02-17T02:13:41.435Z,-0.80
2018-02-17T02:16:09.091Z,-1.00
2018-02-17T02:18:37.542Z,-0.90
2018-02-17T02:21:05.251Z,-0.90
2018-02-17T02:23:32.919Z,-1.00
2018-02-17T02:26:00.623Z,-1.10
2018-02-17T02:28:28.292Z,-0.80
2018-02-17T02:30:56.768Z,-0.50
2018-02-17T02:33:24.459Z,-0.60
2018-02-17T02:35:52.165Z,-0.70
2018-02-17T02:38:19.831Z,-0.80
2018-02-17T02:40:47.539Z,-0.70
2018-02-17T02:43:15.205Z,-0.70
2018-02-17T02:45:42.915Z,-0.80
2018-02-17T02:48:10.575Z,-0.70
2018-02-17T02:50:38.311Z,-0.80
2018-02-17T02:53:05.981Z,-0.80
2018-02-17T02:55:33.684Z,-0.70
2018-02-17T02:58:02.107Z,-0.80
2018-02-17T03:00:29.825Z,-0.80
2018-02-17T03:02:57.487Z,-0.50
2018-02-17T03:05:25.155Z,-0.40
2018-02-17T03:07:52.863Z,-0.60
2018-02-17T03:10:20.528Z,-0.70
2018-02-17T03:12:48.289Z,-0.60
2018-02-17T03:15:16.755Z,-0.30
2018-02-17T03:17:44.499Z,-0.30
2018-02-17T03:20:12.202Z,-0.40
2018-02-17T03:22:39.914Z,-0.40
2018-02-17T03:25:07.578Z,-0.40
2018-02-17T03:27:35.332Z,-0.50
2018-02-17T03:30:03.004Z,-0.60
2018-02-17T03:32:30.752Z,-0.40
2018-02-17T03:34:58.423Z,-0.30
2018-02-17T03:37:26.127Z,-0.40
2018-02-17T03:39:54.551Z,-0.30
2018-02-17T03:42:22.274Z,-0.30
2018-02-17T03:44:50.746Z,-0.40
2018-02-17T03:47:19.233Z,-0.30
2018-02-17T03:49:47.655Z,0.00
2018-02-17T03:52:15.320Z,0.00
2018-02-17T03:54:43.015Z,0.00
2018-02-17T03:57:11.442Z,0.10
2018-02-17T03:59:39.146Z,0.10
2018-02-17T04:02:06.809Z,0.20
2018-02-17T04:04:35.279Z,0.30
2018-02-17T04:07:02.947Z,0.30
2018-02-17T04:09:31.411Z,0.40
2018-02-17T04:11:59.084Z,0.40
2018-02-17T04:14:27.548Z,0.50
2018-02-17T04:16:55.211Z,0.50
2018-02-17T04:19:22.918Z,0.50
2018-02-17T04:21:50.587Z,0.50
2018-02-17T04:24:18.295Z,0.50
2018-02-17T04:26:45.958Z,0.50
2018-02-17T04:29:13.688Z,0.30
2018-02-17T04:31:41.356Z,0.30
2018-02-17T04:34:09.051Z,0.30
2018-02-17T04:36:37.527Z,0.20
2018-02-17T04:39:06.051Z,0.40
2018-02-17T04:44:39.403Z,0.40
2018-02-17T04:47:09.775Z,0.40
2018-02-17T04:49:39.438Z,0.40
2018-02-17T04:52:09.854Z,0.40
2018-02-17T04:54:44.068Z,0.40
2018-02-17T04:57:14.467Z,0.40
2018-02-17T04:59:48.101Z,0.40
2018-02-17T05:02:20.476Z,0.40
2018-02-17T05:04:50.740Z,0.30
2018-02-17T05:07:34.067Z,0.30
2018-02-17T05:10:01.839Z,0.30
2018-02-17T05:12:29.535Z,0.40
2018-02-17T05:15:01.747Z,0.40
2018-02-17T05:17:30.364Z,0.40
2018-02-17T05:19:58.899Z,0.60
2018-02-17T05:22:26.595Z,0.60
2018-02-17T05:24:55.140Z,0.80
2018-02-17T05:30:26.809Z,0.50
2018-02-17T05:33:13.239Z,0.40
2018-02-17T05:35:43.880Z,0.70
2018-02-17T05:38:11.586Z,0.80
2018-02-17T05:40:40.109Z,0.90
2018-02-17T05:43:07.814Z,0.80
2018-02-17T05:45:36.078Z,0.90
2018-02-17T05:48:04.294Z,0.90
2018-02-17T05:50:32.044Z,0.80
2018-02-17T05:52:59.704Z,0.80
2018-02-17T05:55:27.410Z,0.90
2018-02-17T05:57:55.835Z,0.60
2018-02-17T06:00:23.567Z,0.60
2018-02-17T06:02:51.236Z,0.50
2018-02-17T06:05:18.970Z,0.50
2018-02-17T06:07:47.436Z,0.40
2018-02-17T06:10:15.182Z,0.40
2018-02-17T06:12:42.888Z,0.40
2018-02-17T06:15:10.603Z,0.40
2018-02-17T06:17:38.265Z,0.40
2018-02-17T06:20:05.923Z,0.50
2018-02-17T06:22:33.659Z,0.40
2018-02-17T06:25:01.316Z,0.40
2018-02-17T06:27:29.031Z,0.30
2018-02-17T06:29:57.498Z,0.50
2018-02-17T06:32:26.020Z,0.40
2018-02-17T06:34:53.687Z,0.50
2018-02-17T06:37:22.184Z,0.50
2018-02-17T06:39:49.852Z,0.50
2018-02-17T06:42:17.552Z,0.60
2018-02-17T06:44:45.212Z,0.40
2018-02-17T06:47:12.913Z,0.40
2018-02-17T06:49:40.572Z,0.60
2018-02-17T06:52:08.266Z,0.40
2018-02-17T06:54:35.917Z,0.40
2018-02-17T06:57:03.640Z,0.30
2018-02-17T06:59:31.338Z,0.50
2018-02-17T07:01:59.043Z,0.60
2018-02-17T07:04:26.703Z,0.50
2018-02-17T07:06:54.414Z,0.60
2018-02-17T07:09:22.072Z,0.50
2018-02-17T07:11:49.779Z,0.70
2018-02-17T07:14:17.442Z,0.60
2018-02-17T07:16:45.151Z,0.70
2018-02-17T07:19:12.822Z,0.70
2018-02-17T07:21:41.350Z,0.80
2018-02-17T07:24:09.059Z,0.80
2018-02-17T07:26:36.807Z,0.90
2018-02-17T07:29:04.517Z,0.90
2018-02-17T07:31:32.224Z,0.80
2018-02-17T07:33:59.892Z,0.70
2018-02-17T07:36:27.609Z,0.70
2018-02-17T07:38:55.328Z,0.90
2018-02-17T07:41:23.803Z,0.90
2018-02-17T07:43:52.227Z,1.10
2018-02-17T07:46:19.926Z,1.10
2018-02-17T07:48:47.610Z,0.90
2018-02-17T07:51:16.111Z,0.90
2018-02-17T07:53:43.772Z,0.90
2018-02-17T07:56:11.437Z,0.90
2018-02-17T07:58:39.147Z,1.00
2018-02-17T08:01:06.808Z,1.10
2018-02-17T08:03:34.515Z,1.20
2018-02-17T08:06:02.183Z,1.10
2018-02-17T08:08:31.435Z,1.30
2018-02-17T08:11:01.482Z,1.40
2018-02-17T08:13:29.186Z,1.20
2018-02-17T08:15:56.851Z,1.10
2018-02-17T08:18:24.592Z,1.30
2018-02-17T08:20:52.247Z,1.40
2018-02-17T08:23:19.964Z,1.50
2018-02-17T08:25:48.414Z,1.60
2018-02-17T08:28:16.114Z,1.60
2018-02-17T08:30:43.825Z,1.70
2018-02-17T08:33:11.585Z,1.60
2018-02-17T08:35:39.298Z,1.40
2018-02-17T08:38:07.059Z,1.40
2018-02-17T08:40:34.729Z,1.60
2018-02-17T08:43:02.435Z,1.50
2018-02-17T08:45:30.091Z,1.40
2018-02-17T08:47:57.798Z,1.50
2018-02-17T08:50:25.462Z,1.50
2018-02-17T08:52:53.194Z,1.50
2018-02-17T08:55:21.619Z,1.70
2018-02-17T08:57:49.328Z,1.70
2018-02-17T09:00:17.792Z,2.00
2018-02-17T09:02:45.533Z,1.90
2018-02-17T09:05:13.271Z,1.90
2018-02-17T09:07:41.010Z,1.90
2018-02-17T09:10:08.675Z,1.80
2018-02-17T09:12:36.416Z,1.90
2018-02-17T09:15:04.855Z,2.00
2018-02-17T09:17:32.559Z,2.00
2018-02-17T09:20:00.982Z,2.20
2018-02-17T09:22:28.688Z,2.20
2018-02-17T09:24:57.114Z,2.30
2018-02-17T09:29:58.551Z,2.30
2018-02-17T09:32:26.259Z,2.30
2018-02-17T09:34:53.919Z,2.40
2018-02-17T09:37:21.619Z,2.30
2018-02-17T09:39:50.046Z,2.40
2018-02-17T09:42:17.743Z,2.40
2018-02-17T09:44:46.210Z,2.30
2018-02-17T09:47:13.945Z,2.30
2018-02-17T09:49:41.623Z,2.20
2018-02-17T09:52:09.340Z,2.20
2018-02-17T09:54:37.000Z,2.30
2018-02-17T09:57:04.659Z,2.40
2018-02-17T09:59:32.359Z,2.20
2018-02-17T10:02:00.019Z,2.50
2018-02-17T10:04:27.735Z,2.50
2018-02-17T10:06:55.395Z,2.40
2018-02-17T10:09:23.087Z,2.40
2018-02-17T10:11:50.752Z,2.40
2018-02-17T10:14:18.459Z,2.60
2018-02-17T10:16:46.110Z,2.60
2018-02-17T10:19:14.583Z,2.60
2018-02-17T10:21:43.004Z,2.40
2018-02-17T10:24:10.702Z,2.40
2018-02-17T10:26:38.376Z,2.40
2018-02-17T10:29:06.866Z,2.70
2018-02-17T10:31:34.556Z,2.60
2018-02-17T10:34:02.255Z,2.70
2018-02-17T10:36:29.914Z,2.60
2018-02-17T10:38:57.612Z,2.60
2018-02-17T10:41:25.262Z,2.60
2018-02-17T10:43:53.730Z,2.80
2018-02-17T10:46:22.179Z,2.80
2018-02-17T10:48:49.887Z,2.80
2018-02-17T10:51:17.615Z,3.00
2018-02-17T10:53:45.315Z,3.10
2018-02-17T10:56:12.987Z,3.20
2018-02-17T10:58:40.695Z,3.30
2018-02-17T11:01:08.351Z,3.30
2018-02-17T11:03:36.048Z,3.40
2018-02-17T11:06:03.748Z,3.50
2018-02-17T11:08:31.447Z,3.50
2018-02-17T11:10:59.895Z,3.40
2018-02-17T11:13:27.595Z,3.40
2018-02-17T11:15:56.017Z,3.20
2018-02-17T11:18:23.730Z,3.20
2018-02-17T11:20:52.150Z,3.50
2018-02-17T11:23:19.843Z,3.50
2018-02-17T11:25:47.503Z,3.60
2018-02-17T11:28:15.199Z,3.50
2018-02-17T11:30:42.849Z,3.60
2018-02-17T11:33:10.548Z,3.60
2018-02-17T11:35:38.214Z,3.50
2018-02-17T11:38:05.982Z,3.50
2018-02-17T11:40:33.653Z,3.60
2018-02-17T11:43:01.415Z,3.70
2018-02-17T11:45:29.815Z,3.60
2018-02-17T11:47:58.275Z,3.70
2018-02-17T11:50:25.931Z,3.70
2018-02-17T11:52:53.670Z,3.60
2018-02-17T11:55:21.335Z,3.60
2018-02-17T11:57:49.075Z,3.60
2018-02-17T12:00:16.740Z,3.70
2018-02-17T12:02:44.441Z,3.90
2018-02-17T12:05:12.103Z,4.00
2018-02-17T12:07:39.795Z,4.20
2018-02-17T12:10:07.447Z,3.90
2018-02-17T12:12:35.126Z,3.90
2018-02-17T12:15:02.853Z,4.00
2018-02-17T12:17:31.146Z,4.10
2018-02-17T12:19:58.848Z,4.20
2018-02-17T12:22:26.507Z,3.90
2018-02-17T12:24:54.215Z,3.80
2018-02-17T12:27:22.635Z,3.70
2018-02-17T12:29:50.332Z,3.70
2018-02-17T12:32:17.991Z,3.70
2018-02-17T12:34:45.705Z,3.80
2018-02-17T12:37:13.367Z,3.70
2018-02-17T12:39:41.063Z,3.90
2018-02-17T12:42:08.715Z,4.00
2018-02-17T12:44:36.408Z,3.90
2018-02-17T12:47:04.854Z,3.90
2018-02-17T12:49:32.565Z,3.90
2018-02-17T12:52:00.219Z,3.80
2018-02-17T12:54:27.918Z,3.80
2018-02-17T12:56:55.593Z,3.90
2018-02-17T12:59:23.295Z,4.00
2018-02-17T13:01:50.974Z,4.00
2018-02-17T13:04:18.715Z,4.00
2018-02-17T13:06:46.390Z,4.20
2018-02-17T13:09:14.091Z,4.30
2018-02-17T13:11:41.756Z,4.10
2018-02-17T13:14:09.750Z,4.10
2018-02-17T13:16:38.219Z,4.00
2018-02-17T13:19:06.695Z,4.10
2018-02-17T13:21:35.143Z,3.90
2018-02-17T13:24:02.839Z,3.90
2018-02-17T13:26:31.279Z,3.80
2018-02-17T13:28:59.066Z,3.80
2018-02-17T13:31:26.719Z,4.00
2018-02-17T13:33:54.414Z,4.00
2018-02-17T13:36:22.074Z,4.10
2018-02-17T13:38:49.777Z,4.20
2018-02-17T13:41:17.451Z,4.10
2018-02-17T13:43:45.151Z,4.00
2018-02-17T13:46:13.577Z,4.00
2018-02-17T13:48:41.284Z,4.00
2018-02-17T13:51:09.708Z,4.30
2018-02-17T13:53:37.411Z,4.30
2018-02-17T13:56:05.834Z,4.40
2018-02-17T13:58:33.531Z,4.40
2018-02-17T14:01:01.186Z,4.50
2018-02-17T14:03:28.883Z,4.40
2018-02-17T14:05:57.306Z,4.30
2018-02-17T14:08:25.004Z,4.30
2018-02-17T14:10:53.430Z,4.10
2018-02-17T14:13:21.141Z,4.10
2018-02-17T14:15:49.657Z,4.00
2018-02-17T14:18:18.094Z,4.00
2018-02-17T14:20:46.533Z,4.00
2018-02-17T14:23:14.255Z,3.90
2018-02-17T14:25:41.907Z,4.00
2018-02-17T14:28:10.410Z,3.80
2018-02-17T14:30:38.072Z,3.70
2018-02-17T14:33:05.722Z,3.90
2018-02-17T14:35:33.419Z,3.80
2018-02-17T14:38:01.074Z,3.80
2018-02-17T14:40:28.779Z,3.70
2018-02-17T14:42:57.239Z,3.80
2018-02-17T14:45:24.938Z,3.80
2018-02-17T14:47:52.615Z,3.70
2018-02-17T14:50:20.320Z,3.80
2018-02-17T14:52:48.030Z,3.70
2018-02-17T14:55:15.771Z,3.70
2018-02-17T14:57:43.467Z,3.70
2018-02-17T15:00:11.167Z,3.60
2018-02-17T15:02:39.591Z,3.40
2018-02-17T15:05:07.301Z,3.40
2018-02-17T15:07:34.958Z,3.50
2018-02-17T15:10:02.659Z,3.40
2018-02-17T15:12:30.311Z,3.40
2018-02-17T15:14:58.020Z,3.50
2018-02-17T15:17:25.680Z,3.30
2018-02-17T15:19:53.438Z,3.40
2018-02-17T15:22:21.102Z,3.50
2018-02-17T15:24:48.800Z,3.50
2018-02-17T15:27:17.220Z,3.50
2018-02-17T15:29:44.923Z,3.40
2018-02-17T15:32:13.348Z,3.60
2018-02-17T15:34:41.043Z,3.50
2018-02-17T15:37:08.709Z,3.50
2018-02-17T15:39:36.415Z,3.50
2018-02-17T15:42:04.091Z,3.40
2018-02-17T15:44:31.810Z,3.50
2018-02-17T15:47:00.231Z,3.40
2018-02-17T15:49:27.940Z,3.40
2018-02-17T15:51:56.364Z,3.30
2018-02-17T15:54:24.064Z,3.30
2018-02-17T15:56:51.783Z,3.30
2018-02-17T15:59:19.487Z,3.20
2018-02-17T16:01:47.139Z,3.40
2018-02-17T16:04:14.888Z,3.60
2018-02-17T16:06:42.576Z,3.30
2018-02-17T16:09:11.040Z,3.40
2018-02-17T16:11:38.757Z,3.40
2018-02-17T16:14:06.467Z,3.30
2018-02-17T16:16:34.136Z,3.30
2018-02-17T16:19:02.614Z,3.30
2018-02-17T16:21:31.035Z,3.40
2018-02-17T16:23:58.743Z,3.40
2018-02-17T16:26:26.412Z,3.20
2018-02-17T16:28:54.883Z,3.20
2018-02-17T16:31:22.548Z,3.20
2018-02-17T16:33:51.040Z,3.30
2018-02-17T16:36:19.465Z,3.20
2018-02-17T16:38:47.944Z,3.10
2018-02-17T16:41:15.616Z,3.00
2018-02-17T16:43:43.347Z,3.10
2018-02-17T16:46:11.011Z,3.00
2018-02-17T16:48:38.669Z,2.90
2018-02-17T16:51:06.370Z,2.80
2018-02-17T16:53:34.044Z,2.70
2018-02-17T16:56:02.519Z,2.50
2018-02-17T16:58:30.950Z,2.50
2018-02-17T17:00:58.650Z,2.40
2018-02-17T17:03:26.317Z,2.50
2018-02-17T17:05:54.790Z,2.60
2018-02-17T17:08:22.523Z,2.60
2018-02-17T17:10:50.299Z,2.70
2018-02-17T17:13:17.960Z,2.70
2018-02-17T17:15:45.659Z,2.60
2018-02-17T17:18:13.315Z,2.50
2018-02-17T17:20:41.078Z,2.40
2018-02-17T17:23:08.740Z,2.30
2018-02-17T17:25:36.444Z,2.60
2018-02-17T17:28:04.123Z,2.60
2018-02-17T17:30:31.831Z,2.60
2018-02-17T17:32:59.535Z,2.70
2018-02-17T17:35:27.236Z,2.60
2018-02-17T17:37:54.891Z,2.50
2018-02-17T17:40:23.357Z,2.20
2018-02-17T17:42:51.876Z,2.30
2018-02-17T17:45:19.579Z,2.30
2018-02-17T17:47:47.238Z,2.30
2018-02-17T17:50:14.953Z,2.30
2018-02-17T17:52:42.607Z,2.40
2018-02-17T17:55:10.325Z,2.40
2018-02-17T17:57:37.992Z,2.40
2018-02-17T18:00:06.486Z,2.00
2018-02-17T18:02:34.919Z,1.90
2018-02-17T18:05:02.623Z,1.90
2018-02-17T18:07:31.047Z,1.80
2018-02-17T18:09:58.759Z,1.70
2018-02-17T18:12:27.181Z,2.00
2018-02-17T18:14:54.899Z,2.00
2018-02-17T18:17:23.319Z,1.80
2018-02-17T18:19:51.025Z,1.80
2018-02-17T18:22:19.475Z,1.80
2018-02-17T18:24:47.219Z,1.70
2018-02-17T18:27:14.887Z,2.00
2018-02-17T18:29:42.591Z,2.00
2018-02-17T18:32:11.034Z,1.70
2018-02-17T18:34:39.539Z,1.60
2018-02-17T18:37:07.971Z,1.60
2018-02-17T18:39:35.663Z,1.60
2018-02-17T18:42:04.118Z,1.40
2018-02-17T18:44:31.820Z,1.40
2018-02-17T18:47:00.249Z,1.60
2018-02-17T18:49:27.962Z,1.60
2018-02-17T18:51:56.394Z,1.50
2018-02-17T18:54:24.099Z,1.50
2018-02-17T18:56:52.515Z,1.20
2018-02-17T18:59:20.214Z,1.20
2018-02-17T19:01:47.926Z,1.20
2018-02-17T19:04:15.586Z,1.20
2018-02-17T19:06:43.291Z,1.30
2018-02-17T19:09:10.966Z,1.20
2018-02-17T19:11:39.479Z,1.00
2018-02-17T19:14:07.146Z,1.00
2018-02-17T19:16:34.851Z,1.00
2018-02-17T19:19:02.590Z,1.00
2018-02-17T19:21:30.287Z,1.00
2018-02-17T19:23:58.762Z,0.90
2018-02-17T19:26:27.243Z,0.90
2018-02-17T19:28:55.672Z,0.90
2018-02-17T19:31:23.372Z,0.90
2018-02-17T19:33:51.039Z,1.00
2018-02-17T19:36:19.544Z,0.80
2018-02-17T19:38:47.998Z,0.80
2018-02-17T19:41:16.497Z,1.00
2018-02-17T19:43:44.155Z,1.00
2018-02-17T19:46:11.856Z,1.00
2018-02-17T19:48:39.518Z,1.00
2018-02-17T19:51:07.252Z,1.00
2018-02-17T19:53:34.928Z,1.10
2018-02-17T19:56:02.670Z,1.20
2018-02-17T19:58:30.327Z,1.40
2018-02-17T20:00:58.043Z,1.40
2018-02-17T20:03:25.760Z,1.40
2018-02-17T20:05:53.471Z,1.30
2018-02-17T20:08:21.157Z,1.00
2018-02-17T20:10:48.855Z,0.90
2018-02-17T20:13:16.528Z,0.90
2018-02-17T20:15:44.250Z,0.70
2018-02-17T20:18:11.916Z,0.70
2018-02-17T20:20:39.634Z,0.70
2018-02-17T20:23:08.102Z,0.70
2018-02-17T20:25:35.810Z,0.60
2018-02-17T20:28:03.488Z,0.70
2018-02-17T20:30:31.251Z,0.50
2018-02-17T20:32:58.910Z,0.60
2018-02-17T20:35:26.628Z,0.60
2018-02-17T20:37:55.125Z,0.40
2018-02-17T20:40:23.587Z,0.50
2018-02-17T20:42:52.012Z,0.40
2018-02-17T20:45:19.717Z,0.40
2018-02-17T20:47:48.181Z,0.50
2018-02-17T20:50:15.884Z,0.50
2018-02-17T20:52:43.559Z,0.60
2018-02-17T20:55:11.346Z,0.60
2018-02-17T20:57:38.994Z,0.30
2018-02-17T21:00:06.752Z,0.20
2018-02-17T21:02:34.413Z,0.00
2018-02-17T21:05:02.123Z,-0.10
2018-02-17T21:07:30.578Z,-0.20
2018-02-17T21:09:58.299Z,-0.30
2018-02-17T21:12:25.982Z,-0.20
2018-02-17T21:14:53.720Z,-0.30
2018-02-17T21:17:21.451Z,-0.20
2018-02-17T21:19:49.114Z,-0.30
2018-02-17T21:22:16.856Z,-0.20
2018-02-17T21:24:45.292Z,-0.40
2018-02-17T21:27:12.999Z,-0.40
2018-02-17T21:29:41.443Z,-0.50
2018-02-17T21:32:09.219Z,-0.50
2018-02-17T21:34:36.891Z,-0.20
2018-02-17T21:37:05.379Z,0.00
2018-02-17T21:39:33.811Z,0.10
2018-02-17T21:42:01.527Z,0.10
2018-02-17T21:44:29.195Z,-0.10
2018-02-17T21:46:56.943Z,-0.10
2018-02-17T21:49:24.638Z,-0.20
2018-02-17T21:51:52.346Z,-0.10
2018-02-17T21:54:20.780Z,-0.20
2018-02-17T21:56:48.492Z,-0.20
2018-02-17T21:59:16.949Z,-0.40
2018-02-17T22:01:44.655Z,-0.40
2018-02-17T22:04:12.358Z,-0.30
2018-02-17T22:06:40.077Z,-0.40
2018-02-17T22:09:07.742Z,-0.30
2018-02-17T22:11:35.454Z,-0.30
2018-02-17T22:14:03.135Z,-0.20
2018-02-17T22:16:31.603Z,-0.30
2018-02-17T22:19:00.036Z,-0.30
2018-02-17T22:21:27.738Z,-0.40
2018-02-17T22:23:56.232Z,-0.10
2018-02-17T22:26:23.945Z,-0.20
2018-02-17T22:28:51.647Z,-0.10
2018-02-17T22:31:20.119Z,-0.30
2018-02-17T22:33:48.556Z,-0.10
2018-02-17T22:36:16.264Z,-0.20
2018-02-17T22:38:45.051Z,-0.40
2018-02-17T22:41:13.536Z,-0.70
2018-02-17T22:43:41.230Z,-0.70
2018-02-17T22:46:08.939Z,-0.80
2018-02-17T22:48:36.599Z,-1.00
2018-02-17T22:51:05.072Z,-0.90
2018-02-17T22:53:32.786Z,-0.90
2018-02-17T22:56:00.499Z,-0.60
2018-02-17T22:58:28.926Z,-0.60
2018-02-17T23:00:56.647Z,-0.60
2018-02-17T23:03:25.075Z,-0.50
2018-02-17T23:05:52.803Z,-0.50
2018-02-17T23:08:20.480Z,-0.30
2018-02-17T23:10:48.194Z,-0.30
2018-02-17T23:13:16.624Z,-0.40
2018-02-17T23:15:44.330Z,-0.40
2018-02-17T23:18:12.772Z,-0.50
2018-02-17T23:20:41.239Z,-0.60
2018-02-17T23:23:08.934Z,-0.70
2018-02-17T23:25:36.642Z,-0.50
2018-02-17T23:28:04.356Z,-0.60
2018-02-17T23:30:32.024Z,-0.60
2018-02-17T23:33:00.499Z,-0.60
2018-02-17T23:35:28.159Z,-0.60
2018-02-17T23:37:55.863Z,-0.80
2018-02-17T23:40:23.518Z,-0.90
2018-02-17T23:42:51.232Z,-0.90
2018-02-17T23:45:18.896Z,-1.00
2018-02-17T23:47:46.611Z,-1.00
2018-02-17T23:50:14.276Z,-1.00
2018-02-17T23:52:41.987Z,-1.10
2018-02-17T23:55:10.416Z,-1.00
2018-02-17T23:57:38.123Z,-1.00
